Charter Quote
Worldwide +1-877-727-2538 Call
Select Language Lang
SAFETY RELIABILITY EXPERIENCE

Private Jet Charter Services - Wunstorf Airport (ETNW)

Paramount Business Jets offers private jet charter flights and luxury airliner charters to and from Wunstorf Airport.

AIRPORT INFORMATION
ICAOETNW
LOCATIONWunstorf, Germany
FACILITY TYPEAIRPORT
Runway Length (ft) Width (ft) Surface Type Elevation (ft)
26/08 6157 153 ASP 186.88525
21/03 5573 156 ASP 186.88525
26L/08R 3569 132 GRS 186.88525

At Paramount Business Jets you can hire chartered private jets to and from Wunstorf Airport with as little as 4 hours of notice. All flights booked via Paramount Business Jets are operated by certified direct air carriers that meet and exceed the FAA part 135 and 121 protocol or a foreign equivalent safety authority. Furthermore, Paramount Business Jets subscribes to ARGUS for their third party safety checks of operators, aircraft, and crews prior each and every flight to and from Wunstorf Airport and worldwide.

  • Quote a trip using Wunstorf Airport or call us 24/7 - 365 days a year at +1-877-727-2538.
Questions? Call +1-877-727-2538

METAR Weather Data at Wunstorf Airport, ETNW

STATIONETNW
OBSERVEDSat Aug 17, 12:20 UTC
NOWSat Aug 17, 13:09 UTC
AGE49 min ago
WINDW at 15 mph
VISIBILITY16 miles
METARETNW 171220Z AUTO 26013KT 9999 // ////// 23/13 Q1007 ///

Call us on +1-877-727-2538 (24 Hours) to Hire a Private Jet or Get a Quick Quote.

Find Airports Near any Location

Processing
...